Aurora, CO (80046)

9:00 AM MST on February 11, 2016 (GMT -0700)
Pheasant Run | | Change Station
CLOSE
Current Station
Personal Weather Station
Location: Aurora, CO
Elevation: 5761 ft
Nearby Weather Stations

Elev 5761 ft 39.63 °N, 104.80 °W | Updated 17 seconds ago

Mostly Cloudy
Mostly Cloudy
42.3 °F
Feels Like 42 °F
N
0.7
Wind Variable Wind from SSW
Gusts 3.8 mph

Today
High -- | Low -- °F
--% Chance of Precip.
Yesterday
High -- | Low -- °F
Precip. -- in
Pressure 30.16 in
Visibility 10.0 miles
Clouds Few 9000 ft
Mostly Cloudy 15000 ft
Mostly Cloudy 20000 ft
Windchill 42 °F
Dew Point 15 °F
Humidity 33%
Rainfall 0.00 in
Snow Depth Not available.
6:56 AM 5:30 PM
Waxing Crescent, 12% visible
METAR KAPA 111553Z 17003KT 10SM FEW090 BKN150 BKN200 04/M06 A3017 RMK AO2 SLP211 T00441056
Pressure 30.16 in
Visibility 10.0 miles
Clouds Few 9000 ft
Mostly Cloudy 15000 ft
Mostly Cloudy 20000 ft
Windchill 42 °F
Dew Point 15 °F
Humidity 33%
Rainfall 0.00 in
Snow Depth Not available.
6:56 AM 5:30 PM
Waxing Crescent, 12% visible
METAR KAPA 111553Z 17003KT 10SM FEW090 BKN150 BKN200 04/M06 A3017 RMK AO2 SLP211 T00441056

10-Day Weather Forecast

Almanac

Astronomy

Feb. 11, 2016 Rise Set
Actual Time
Civil Twilight
Nautical Twilight
Astronomical Twilight
Moon
Length of Visible Light
Length of Day
Tomorrow will be .
, % of the Moon is Illuminated

Today's Extremes

State Highs State Lows

Community

WunderPhotos

Upload Photos

1,892,081 photos uploaded!

WunderBlog® & News

Nearby

Air Quality

  Air Quality AQ Index Pollutant
Not available.

Snow Depth

Station Depth Elevation

Earthquake Activity

City Distance Mag. Time & Date
Minimum magnitude displayed is 2.5.

Coastal Water Temperatures

Place Temperature

Stations

Nearby Weather Stations

Station Location Temp. Windchill Dew Point Humidity Wind Precip. Elev Updated Type
                   

Watches & Warnings

There are currently no watches in effect.